Time;durP1;ratioP1;P1;durP2;ratioP2;P2;SDS_P1;SDS_P2;PMS_P1;PMS_P2;Temp;Humidity;BMP_temperature;BMP_pressure;BME280_temperature;BME280_humidity;BME280_pressure;Samples;Min_cycle;Max_cycle;Signal;HPM_P1;HPM_P2
2022/12/17 13:06:55;;;;;;;1999.90;999.90;;;0.60;99.90;;;;;;6756893;88;20230;-79
2022/12/17 13:17:40;;;;;;;1999.90;999.90;;;1.70;99.90;;;;;;6757086;88;20210;-79
2022/12/17 13:27:41;;;;;;;1999.90;999.90;;;1.40;99.90;;;;;;6694880;88;20199;-78
2022/12/17 13:47:55;;;;;;;1999.90;999.90;;;2.90;99.90;;;;;;6756428;88;20232;-81
2022/12/17 13:57:56;;;;;;;1999.90;999.90;;;2.80;99.90;;;;;;6736949;88;20301;-77
2022/12/17 14:07:59;;;;;;;1999.90;999.90;;;1.40;99.90;;;;;;6741907;88;20239;-78
2022/12/17 14:18:01;;;;;;;1999.90;999.90;;;1.00;99.90;;;;;;6747072;88;20184;-78
2022/12/17 14:28:32;;;;;;;1999.90;999.90;;;0.00;99.90;;;;;;6753489;88;20200;-77
2022/12/17 14:38:34;;;;;;;1999.90;999.90;;;-0.70;99.90;;;;;;6745426;88;20746;-78
2022/12/17 14:58:54;;;;;;;1999.90;999.90;;;-1.50;99.90;;;;;;6756344;88;20449;-79
2022/12/17 15:08:55;;;;;;;1999.90;999.90;;;-1.80;99.90;;;;;;6761828;88;20230;-78
2022/12/17 15:18:55;;;;;;;1999.90;999.90;;;-2.10;99.90;;;;;;6744322;88;20260;-78
2022/12/17 15:28:56;;;;;;;1999.90;999.90;;;-2.20;99.90;;;;;;6745656;88;20286;-77
2022/12/17 15:38:57;;;;;;;1999.90;999.90;;;-2.40;99.90;;;;;;6745309;88;20210;-76
2022/12/17 15:48:57;;;;;;;1999.90;999.90;;;-2.70;99.90;;;;;;6734424;88;20529;-77
2022/12/17 15:58:58;;;;;;;1999.90;999.90;;;-3.00;99.90;;;;;;6750695;88;20202;-78
2022/12/17 16:08:58;;;;;;;1999.90;999.90;;;-3.20;99.90;;;;;;6736377;88;20174;-79
2022/12/17 16:19:00;;;;;;;1999.90;999.90;;;-3.40;99.90;;;;;;6729980;88;20675;-78
2022/12/17 16:29:01;;;;;;;1999.90;999.90;;;-3.40;99.90;;;;;;6743333;88;20503;-77
2022/12/17 16:39:04;;;;;;;1999.90;999.90;;;-3.60;99.90;;;;;;6756296;88;22529;-79
2022/12/17 16:49:11;;;;;;;1999.90;999.90;;;-3.70;99.90;;;;;;6741391;77;20369;-75
2022/12/17 16:59:13;;;;;;;1999.90;999.90;;;-3.70;99.90;;;;;;6712766;88;20192;-74
2022/12/17 17:09:15;;;;;;;1999.90;999.90;;;-3.70;99.90;;;;;;6720959;88;20199;-76
2022/12/17 17:19:15;;;;;;;1999.90;999.90;;;-3.80;99.90;;;;;;6717043;88;20630;-75
2022/12/17 17:29:16;;;;;;;1999.90;999.90;;;-3.80;99.90;;;;;;6719181;88;20233;-74
2022/12/17 17:39:17;;;;;;;1999.90;999.90;;;-3.80;99.90;;;;;;6720501;88;20194;-74
2022/12/17 17:49:17;;;;;;;1999.90;999.90;;;-3.80;99.90;;;;;;6723146;88;20215;-74
2022/12/17 17:59:18;;;;;;;1999.90;999.90;;;-3.80;99.90;;;;;;6717799;88;20969;-74
2022/12/17 18:09:19;;;;;;;1999.90;999.90;;;-3.90;99.90;;;;;;6715098;88;20208;-74
2022/12/17 18:19:21;;;;;;;1999.90;999.90;;;-4.00;99.90;;;;;;6718335;88;20228;-75
2022/12/17 18:29:25;;;;;;;1999.90;999.90;;;-3.90;99.90;;;;;;6720964;88;21045;-74
2022/12/17 18:39:26;;;;;;;1999.90;999.90;;;-3.90;99.90;;;;;;6718157;88;20210;-74
2022/12/17 18:49:26;;;;;;;1999.90;999.90;;;-3.90;99.90;;;;;;6715645;88;20210;-74
2022/12/17 18:59:29;;;;;;;1999.90;999.90;;;-4.00;99.90;;;;;;6712452;88;20598;-74
2022/12/17 19:09:34;;;;;;;1999.90;999.90;;;-4.10;99.90;;;;;;6715965;88;20544;-73
2022/12/17 19:19:35;;;;;;;1999.90;999.90;;;-4.10;99.90;;;;;;6714072;88;20198;-74
2022/12/17 19:29:35;;;;;;;1999.90;999.90;;;-4.20;99.90;;;;;;6712796;88;20236;-74
2022/12/17 19:39:36;;;;;;;1999.90;999.90;;;-4.30;99.90;;;;;;6707154;88;20497;-74
2022/12/17 19:49:36;;;;;;;1999.90;999.90;;;-4.50;99.90;;;;;;6709611;88;20224;-74
2022/12/17 19:59:37;;;;;;;1999.90;999.90;;;-4.60;99.90;;;;;;6714801;88;20620;-74
2022/12/17 20:09:39;;;;;;;1999.90;999.90;;;-4.60;99.90;;;;;;6718884;88;20306;-76
2022/12/17 20:19:40;;;;;;;1999.90;999.90;;;-4.80;99.90;;;;;;6718090;88;20696;-73
2022/12/17 20:29:41;;;;;;;1999.90;999.90;;;-4.80;99.90;;;;;;6719194;88;20717;-74
2022/12/17 20:39:42;;;;;;;1999.90;999.90;;;-5.00;99.90;;;;;;6716095;88;20280;-75
2022/12/17 20:49:42;;;;;;;1999.90;999.90;;;-4.90;99.90;;;;;;6717364;88;20646;-77
2022/12/17 20:59:43;;;;;;;1999.90;999.90;;;-4.90;99.90;;;;;;6713108;88;20186;-75
2022/12/17 21:09:43;;;;;;;1999.90;999.90;;;-4.90;99.90;;;;;;6711007;88;20288;-74
2022/12/17 21:19:44;;;;;;;1999.90;999.90;;;-4.90;99.90;;;;;;6715733;88;20193;-74
2022/12/17 21:29:44;;;;;;;1999.90;999.90;;;-4.90;99.90;;;;;;6718662;88;20189;-76
2022/12/17 21:39:45;;;;;;;1999.90;999.90;;;-5.00;99.90;;;;;;6717578;88;20210;-74
2022/12/17 21:49:46;;;;;;;1999.90;999.90;;;-5.10;99.90;;;;;;6713913;88;20214;-75
2022/12/17 21:59:46;;;;;;;1999.90;999.90;;;-5.10;99.90;;;;;;6720895;88;20199;-75
2022/12/17 22:09:47;;;;;;;1999.90;999.90;;;-5.10;99.90;;;;;;6719486;88;21072;-75
2022/12/17 22:19:47;;;;;;;1999.90;999.90;;;-5.10;99.90;;;;;;6715723;88;20556;-75
2022/12/17 22:40:09;;;;;;;1999.90;999.90;;;-4.90;99.90;;;;;;6716633;88;20515;-74
2022/12/17 22:50:10;;;;;;;1999.90;999.90;;;-4.80;99.90;;;;;;6722340;88;20186;-76
2022/12/17 23:00:25;;;;;;;1999.90;999.90;;;-4.70;99.90;;;;;;6727450;88;20185;-75
2022/12/17 23:10:27;;;;;;;1999.90;999.90;;;-4.70;99.90;;;;;;6722580;88;20200;-76
2022/12/17 23:20:29;;;;;;;1999.90;999.90;;;-4.60;99.90;;;;;;6724764;88;20223;-76
2022/12/17 23:30:30;;;;;;;1999.90;999.90;;;-4.90;99.90;;;;;;6729903;88;20227;-74
2022/12/17 23:40:31;;;;;;;1999.90;999.90;;;-5.00;99.90;;;;;;6726225;88;21151;-77
2022/12/17 23:50:31;;;;;;;1999.90;999.90;;;-5.00;99.90;;;;;;6723867;88;20350;-77
